Time;durP1;ratioP1;P1;durP2;ratioP2;P2;SDS_P1;SDS_P2;PMS_P1;PMS_P2;Temp;Humidity;BMP_temperature;BMP_pressure;BME280_temperature;BME280_humidity;BME280_pressure;Samples;Min_cycle;Max_cycle;Signal;HPM_P1;HPM_P2
2023/02/10 00:01:35;;;;;;;47.30;24.42;;;4.30;99.90;;;;;;5051919;28;20032;-82
2023/02/10 00:04:01;;;;;;;51.83;27.65;;;4.30;99.90;;;;;;5058468;28;20123;-83
2023/02/10 00:06:27;;;;;;;39.50;18.17;;;4.30;99.90;;;;;;5066101;28;20119;-82
2023/02/10 00:08:54;;;;;;;37.30;18.42;;;4.30;99.90;;;;;;5066211;28;20183;-82
2023/02/10 00:11:55;;;;;;;35.72;13.68;;;4.30;99.90;;;;;;5065748;28;20028;-82
2023/02/10 00:14:05;;;;;;;29.30;14.30;;;4.30;99.90;;;;;;5069580;28;20044;-82
2023/02/10 00:16:31;;;;;;;28.33;12.98;;;4.30;99.90;;;;;;5053368;28;20266;-82
2023/02/10 00:18:56;;;;;;;41.15;20.02;;;4.30;99.90;;;;;;5049867;28;20664;-82
2023/02/10 00:21:22;;;;;;;43.00;23.27;;;4.30;99.90;;;;;;5048304;28;20045;-82
2023/02/10 00:23:47;;;;;;;43.38;21.83;;;4.30;99.90;;;;;;5050832;28;20043;-82
2023/02/10 00:26:14;;;;;;;42.45;21.50;;;4.40;99.90;;;;;;5088044;28;20066;-83
2023/02/10 00:28:39;;;;;;;42.83;23.70;;;4.30;99.90;;;;;;5073563;28;20123;-81
2023/02/10 00:31:06;;;;;;;22.02;11.00;;;4.40;99.90;;;;;;5054318;28;20084;-78
2023/02/10 00:33:32;;;;;;;39.17;22.20;;;4.30;99.90;;;;;;5092414;28;20024;-79
2023/02/10 00:35:57;;;;;;;28.30;13.75;;;4.30;99.90;;;;;;5072367;28;20063;-78
2023/02/10 00:38:23;;;;;;;44.97;21.75;;;4.30;99.90;;;;;;5071548;28;20040;-79
2023/02/10 00:40:48;;;;;;;41.95;22.65;;;4.30;99.90;;;;;;5060951;28;20031;-79
2023/02/10 00:43:14;;;;;;;36.92;21.02;;;4.30;99.90;;;;;;5076772;28;20032;-79
2023/02/10 00:45:39;;;;;;;44.97;22.42;;;4.30;99.90;;;;;;5069214;27;20072;-79
2023/02/10 00:48:05;;;;;;;47.40;25.40;;;4.30;99.90;;;;;;5073312;28;20523;-79
2023/02/10 00:50:30;;;;;;;42.90;23.23;;;4.30;99.90;;;;;;5056243;28;20032;-79
2023/02/10 00:52:56;;;;;;;32.90;15.90;;;4.20;99.90;;;;;;5072975;28;20038;-79
2023/02/10 00:55:21;;;;;;;32.63;17.67;;;4.20;99.90;;;;;;5055041;28;20681;-79
2023/02/10 00:57:47;;;;;;;43.30;23.83;;;4.20;99.90;;;;;;5090157;28;20918;-79
2023/02/10 01:00:13;;;;;;;45.67;23.90;;;4.20;99.90;;;;;;5085778;28;20052;-79
2023/02/10 01:02:39;;;;;;;36.22;18.80;;;4.20;99.90;;;;;;5088194;28;20024;-79
2023/02/10 01:05:05;;;;;;;51.63;22.50;;;4.20;99.90;;;;;;5073546;28;20378;-79
2023/02/10 01:07:30;;;;;;;28.38;13.95;;;4.20;99.90;;;;;;5073216;28;20467;-79
2023/02/10 01:09:56;;;;;;;43.78;22.83;;;4.20;99.90;;;;;;5054658;28;20040;-79
2023/02/10 01:12:21;;;;;;;39.28;18.60;;;4.20;99.90;;;;;;5064940;28;20024;-79
2023/02/10 01:14:47;;;;;;;39.10;17.60;;;4.20;99.90;;;;;;5044864;28;20051;-81
2023/02/10 01:17:12;;;;;;;47.03;24.35;;;4.20;99.90;;;;;;5048969;28;20028;-81
2023/02/10 01:19:38;;;;;;;48.95;24.05;;;4.20;99.90;;;;;;5035725;28;20027;-82
2023/02/10 01:22:03;;;;;;;44.33;23.00;;;4.20;99.90;;;;;;5057851;28;20391;-82
2023/02/10 01:24:29;;;;;;;44.58;21.20;;;4.10;99.90;;;;;;5040200;28;20055;-81
2023/02/10 01:26:54;;;;;;;29.17;13.77;;;4.10;99.90;;;;;;5069598;28;20031;-82
2023/02/10 01:29:20;;;;;;;38.33;18.00;;;4.00;99.90;;;;;;5059423;28;20067;-79
2023/02/10 01:31:45;;;;;;;54.85;26.70;;;4.00;99.90;;;;;;5061456;28;20123;-80
2023/02/10 01:34:11;;;;;;;36.30;18.27;;;4.00;99.90;;;;;;5065977;28;20027;-80
2023/02/10 01:36:37;;;;;;;43.97;21.90;;;4.00;99.90;;;;;;5062066;28;20039;-80
2023/02/10 01:39:02;;;;;;;42.22;20.38;;;4.00;99.90;;;;;;5039427;28;20122;-80
2023/02/10 01:41:28;;;;;;;48.80;25.65;;;4.00;99.90;;;;;;5043906;28;20034;-80
2023/02/10 01:44:06;;;;;;;45.13;23.75;;;4.00;99.90;;;;;;5057651;28;20429;-81
2023/02/10 01:46:33;;;;;;;43.75;23.90;;;4.00;99.90;;;;;;5080456;28;20500;-80
2023/02/10 01:49:01;;;;;;;45.95;19.10;;;4.00;99.90;;;;;;5057838;28;20039;-80
2023/02/10 01:51:51;;;;;;;45.40;23.60;;;4.00;99.90;;;;;;5085315;28;20506;-82
2023/02/10 01:54:19;;;;;;;52.92;24.90;;;4.00;99.90;;;;;;5070058;28;20032;-80
2023/02/10 01:56:45;;;;;;;49.20;24.83;;;4.00;99.90;;;;;;5072137;28;20032;-81
2023/02/10 01:59:11;;;;;;;43.47;22.88;;;4.00;99.90;;;;;;5078868;28;20049;-80
2023/02/10 02:01:36;;;;;;;50.95;23.67;;;4.00;99.90;;;;;;5054221;28;20108;-80
2023/02/10 02:04:02;;;;;;;52.53;27.38;;;4.10;99.90;;;;;;5070705;28;20394;-82
2023/02/10 02:06:28;;;;;;;47.17;18.17;;;4.00;99.90;;;;;;5078028;28;20385;-81
2023/02/10 02:08:53;;;;;;;51.17;23.92;;;4.00;99.90;;;;;;5074556;28;20066;-82
2023/02/10 02:11:23;;;;;;;52.35;26.58;;;3.90;99.90;;;;;;5091906;28;20056;-81
2023/02/10 02:13:58;;;;;;;42.85;21.88;;;4.00;99.90;;;;;;5087155;28;20038;-81
2023/02/10 02:16:55;;;;;;;52.05;24.98;;;4.10;99.90;;;;;;5077593;28;20039;-82
2023/02/10 02:19:51;;;;;;;44.38;22.70;;;4.20;99.90;;;;;;5084422;28;20036;-81
2023/02/10 02:22:18;;;;;;;49.63;25.50;;;4.10;99.90;;;;;;5083217;28;20028;-82
2023/02/10 02:25:25;;;;;;;46.28;24.63;;;4.10;99.90;;;;;;5073414;27;20026;-81
2023/02/10 02:27:54;;;;;;;60.80;31.48;;;4.10;99.90;;;;;;5025253;28;20033;-81
2023/02/10 02:30:58;;;;;;;44.88;21.85;;;4.10;99.90;;;;;;5073256;27;20685;-82
2023/02/10 02:33:30;;;;;;;55.13;27.95;;;4.00;99.90;;;;;;5050239;28;20401;-81
2023/02/10 02:36:07;;;;;;;52.92;27.33;;;4.00;99.90;;;;;;5058704;28;20172;-82
2023/02/10 02:38:40;;;;;;;47.17;23.58;;;4.00;99.90;;;;;;5041891;28;20040;-81
2023/02/10 02:41:05;;;;;;;54.47;27.92;;;4.00;99.90;;;;;;5039302;28;20085;-82
2023/02/10 02:43:31;;;;;;;53.63;27.80;;;4.00;99.90;;;;;;5067820;28;20469;-81
2023/02/10 02:46:01;;;;;;;59.42;29.27;;;3.90;99.90;;;;;;5045839;28;20036;-82
2023/02/10 02:48:43;;;;;;;48.22;22.25;;;3.90;99.90;;;;;;5043400;28;20029;-81
2023/02/10 02:51:21;;;;;;;44.22;23.35;;;4.00;99.90;;;;;;5046297;28;20063;-82
2023/02/10 02:54:06;;;;;;;52.72;25.25;;;3.90;99.90;;;;;;5044802;28;20033;-81
2023/02/10 02:56:53;;;;;;;46.85;24.50;;;3.90;99.90;;;;;;5046257;28;20036;-81
2023/02/10 02:59:25;;;;;;;44.17;22.85;;;3.80;99.90;;;;;;5064604;28;20483;-81
2023/02/10 03:01:56;;;;;;;43.40;23.27;;;3.90;99.90;;;;;;5053884;28;20055;-82
2023/02/10 03:04:22;;;;;;;46.58;23.70;;;3.80;99.90;;;;;;5063607;28;20035;-81
2023/02/10 03:06:47;;;;;;;44.50;23.17;;;3.80;99.90;;;;;;5060441;28;20036;-81
2023/02/10 03:09:13;;;;;;;48.75;24.98;;;3.90;99.90;;;;;;5056234;28;20081;-81
2023/02/10 03:11:38;;;;;;;53.72;27.83;;;3.80;99.90;;;;;;5059546;28;20035;-80
2023/02/10 03:14:04;;;;;;;46.55;23.15;;;3.80;99.90;;;;;;5057954;28;20096;-81
2023/02/10 03:16:29;;;;;;;49.72;25.98;;;3.70;99.90;;;;;;5042932;28;20492;-82
2023/02/10 03:18:55;;;;;;;51.13;25.75;;;3.60;99.90;;;;;;5059444;28;20035;-82
2023/02/10 03:21:20;;;;;;;48.08;24.48;;;3.50;99.90;;;;;;5045511;28;20028;-82
2023/02/10 03:23:46;;;;;;;58.53;29.35;;;3.40;99.90;;;;;;5055001;28;20358;-81
2023/02/10 03:26:12;;;;;;;58.30;29.95;;;3.40;99.90;;;;;;5071703;28;20098;-82
2023/02/10 03:28:37;;;;;;;57.85;28.80;;;3.30;99.90;;;;;;5055367;28;20054;-82
2023/02/10 03:31:04;;;;;;;61.45;28.30;;;3.20;99.90;;;;;;5040408;28;20032;-81
2023/02/10 03:33:29;;;;;;;50.20;25.23;;;3.20;99.90;;;;;;5054048;28;20036;-81
2023/02/10 03:35:57;;;;;;;61.45;31.45;;;3.20;99.90;;;;;;5075279;28;20524;-78
2023/02/10 03:38:22;;;;;;;60.50;30.77;;;3.20;99.90;;;;;;5060195;28;20058;-78
2023/02/10 03:40:51;;;;;;;53.97;28.30;;;3.20;99.90;;;;;;5053239;28;20109;-80
2023/02/10 03:43:17;;;;;;;45.22;21.15;;;3.10;99.90;;;;;;5058910;28;20503;-81
2023/02/10 03:45:43;;;;;;;45.53;22.58;;;3.20;99.90;;;;;;5057845;28;20606;-81
2023/02/10 03:48:09;;;;;;;43.78;22.58;;;3.20;99.90;;;;;;5044471;28;20039;-81
2023/02/10 03:50:34;;;;;;;53.50;26.55;;;3.20;99.90;;;;;;5070178;28;20111;-81
2023/02/10 03:53:00;;;;;;;47.47;24.88;;;3.20;99.90;;;;;;5053310;28;20028;-81
2023/02/10 03:55:25;;;;;;;48.03;22.67;;;3.20;99.90;;;;;;5056646;28;20504;-80
2023/02/10 03:57:51;;;;;;;41.78;18.58;;;3.20;99.90;;;;;;5058162;28;20028;-81
2023/02/10 04:00:17;;;;;;;34.60;16.65;;;3.20;99.90;;;;;;5069879;28;20172;-81
2023/02/10 04:02:42;;;;;;;49.22;26.02;;;3.20;99.90;;;;;;5057474;28;20047;-80
2023/02/10 04:05:08;;;;;;;51.03;25.77;;;3.10;99.90;;;;;;5062403;28;20032;-82
2023/02/10 04:07:33;;;;;;;48.22;25.55;;;2.90;99.90;;;;;;5056411;28;20518;-82
2023/02/10 04:09:59;;;;;;;50.08;22.88;;;2.80;99.90;;;;;;5073148;28;20111;-81
2023/02/10 04:12:24;;;;;;;49.72;27.13;;;2.80;99.90;;;;;;5059007;28;20016;-82
2023/02/10 04:14:50;;;;;;;51.83;22.83;;;2.90;99.90;;;;;;5057026;28;20098;-82
2023/02/10 04:17:15;;;;;;;48.45;25.08;;;2.80;99.90;;;;;;5054901;28;20036;-81
2023/02/10 04:19:41;;;;;;;41.08;22.92;;;2.80;99.90;;;;;;5061334;28;20032;-81
2023/02/10 04:22:06;;;;;;;48.50;24.35;;;2.90;99.90;;;;;;5055936;28;20039;-82
2023/02/10 04:24:32;;;;;;;46.95;23.10;;;2.80;99.90;;;;;;5055025;28;20058;-82
2023/02/10 04:26:57;;;;;;;50.22;26.88;;;2.70;99.90;;;;;;5058674;28;20389;-80
2023/02/10 04:29:23;;;;;;;47.03;23.02;;;2.70;99.90;;;;;;5043721;28;20120;-81
2023/02/10 04:31:49;;;;;;;60.30;29.05;;;2.70;99.90;;;;;;5037383;28;20115;-83
2023/02/10 04:34:14;;;;;;;60.58;30.27;;;2.70;99.90;;;;;;5059455;28;20115;-82
2023/02/10 04:36:40;;;;;;;51.08;24.38;;;2.70;99.90;;;;;;5078082;28;20101;-81
2023/02/10 04:39:05;;;;;;;49.22;24.92;;;2.70;99.90;;;;;;5057367;28;20483;-83
2023/02/10 04:41:31;;;;;;;50.78;25.63;;;2.70;99.90;;;;;;5071742;28;20534;-84
2023/02/10 04:43:56;;;;;;;44.30;23.65;;;2.70;99.90;;;;;;5065082;28;20507;-83
2023/02/10 04:46:22;;;;;;;46.92;22.27;;;2.60;99.90;;;;;;5032284;28;20040;-83
2023/02/10 04:48:48;;;;;;;46.08;22.02;;;2.60;99.90;;;;;;5054759;28;20028;-82
2023/02/10 04:51:14;;;;;;;50.13;24.58;;;2.60;99.90;;;;;;5030452;28;20036;-81
2023/02/10 04:53:40;;;;;;;42.28;24.00;;;2.50;99.90;;;;;;5068928;28;20369;-82
2023/02/10 04:56:06;;;;;;;44.92;24.80;;;2.50;99.90;;;;;;5048431;28;20413;-83
2023/02/10 04:58:32;;;;;;;48.35;23.90;;;2.50;99.90;;;;;;5050662;28;20024;-84
2023/02/10 05:00:57;;;;;;;52.28;23.05;;;2.50;99.90;;;;;;5057555;28;21226;-84
2023/02/10 05:03:23;;;;;;;30.67;13.63;;;2.50;99.90;;;;;;5023009;28;20040;-82
2023/02/10 05:05:51;;;;;;;54.83;25.65;;;2.50;99.90;;;;;;5051355;28;20385;-82
2023/02/10 05:08:19;;;;;;;43.35;22.42;;;2.50;99.90;;;;;;5033514;28;20376;-82
2023/02/10 05:10:48;;;;;;;51.67;26.00;;;2.40;99.90;;;;;;5083778;28;20063;-81
2023/02/10 05:13:13;;;;;;;53.72;25.02;;;2.40;99.90;;;;;;5036027;28;20044;-81
2023/02/10 05:15:39;;;;;;;52.58;25.63;;;2.40;99.90;;;;;;5050040;28;20038;-84
2023/02/10 05:18:04;;;;;;;52.80;26.27;;;2.30;99.90;;;;;;5051618;28;20112;-83
2023/02/10 05:20:30;;;;;;;54.17;25.80;;;2.10;99.90;;;;;;5051328;28;20074;-84
2023/02/10 05:22:56;;;;;;;59.15;31.05;;;2.10;99.90;;;;;;5055533;28;20464;-85
2023/02/10 05:25:21;;;;;;;54.42;24.92;;;2.00;99.90;;;;;;5066420;28;20025;-83
2023/02/10 05:27:47;;;;;;;51.92;25.83;;;2.00;99.90;;;;;;5081983;28;20039;-83
2023/02/10 05:30:13;;;;;;;51.63;25.15;;;2.00;99.90;;;;;;5037969;28;20120;-83
2023/02/10 05:32:39;;;;;;;47.35;23.48;;;2.00;99.90;;;;;;5047281;28;20048;-80
2023/02/10 05:35:05;;;;;;;57.17;27.73;;;2.10;99.90;;;;;;5076196;28;20382;-83
2023/02/10 05:37:31;;;;;;;47.13;24.40;;;2.10;99.90;;;;;;5059313;28;20039;-83
2023/02/10 05:39:56;;;;;;;46.38;22.67;;;2.00;99.90;;;;;;5078635;28;20063;-84
2023/02/10 05:42:22;;;;;;;56.63;26.40;;;1.90;99.90;;;;;;5054483;28;20033;-83
2023/02/10 05:44:47;;;;;;;55.33;26.63;;;2.00;99.90;;;;;;5047267;28;20450;-84
2023/02/10 05:47:13;;;;;;;51.20;25.67;;;2.00;99.90;;;;;;5052920;28;20374;-83
2023/02/10 05:49:38;;;;;;;54.40;26.80;;;2.00;99.90;;;;;;5068913;28;20661;-81
2023/02/10 05:52:04;;;;;;;48.83;24.05;;;2.10;99.90;;;;;;5061563;28;20024;-84
2023/02/10 05:54:30;;;;;;;49.88;25.55;;;2.10;99.90;;;;;;5059003;28;20024;-81
2023/02/10 05:56:55;;;;;;;43.50;21.27;;;2.10;99.90;;;;;;5060227;28;20162;-82
2023/02/10 05:59:21;;;;;;;28.70;13.77;;;2.20;99.90;;;;;;5059560;28;20106;-84
2023/02/10 06:01:47;;;;;;;46.40;24.05;;;2.20;99.90;;;;;;5043279;28;20522;-84
2023/02/10 06:04:12;;;;;;;38.97;20.30;;;2.20;99.90;;;;;;5036822;28;20128;-83
2023/02/10 06:06:38;;;;;;;56.03;24.63;;;2.20;99.90;;;;;;5059018;28;20070;-82
2023/02/10 06:09:04;;;;;;;52.03;23.23;;;2.30;99.90;;;;;;5081465;28;20049;-83
2023/02/10 06:11:29;;;;;;;43.13;21.15;;;2.30;99.90;;;;;;5046134;28;20055;-84
2023/02/10 06:13:55;;;;;;;51.17;24.38;;;2.20;99.90;;;;;;5051792;28;20041;-83
2023/02/10 06:16:21;;;;;;;53.08;24.52;;;2.20;99.90;;;;;;5081965;27;20043;-83
2023/02/10 06:18:47;;;;;;;59.42;26.25;;;2.20;99.90;;;;;;5075550;28;20032;-83
2023/02/10 06:21:14;;;;;;;52.58;22.65;;;2.30;99.90;;;;;;5039169;28;20841;-83
2023/02/10 06:23:40;;;;;;;63.30;27.15;;;2.30;99.90;;;;;;5075318;28;20032;-83
2023/02/10 06:26:05;;;;;;;42.22;19.88;;;2.30;99.90;;;;;;5052653;28;20588;-84
2023/02/10 06:28:31;;;;;;;56.95;26.05;;;2.30;99.90;;;;;;5084478;28;20032;-83
2023/02/10 06:30:57;;;;;;;43.80;20.00;;;2.30;99.90;;;;;;5059947;28;20440;-83
2023/02/10 06:33:23;;;;;;;66.90;31.52;;;2.40;99.90;;;;;;5085212;28;20185;-82
2023/02/10 06:35:48;;;;;;;40.72;21.52;;;2.40;99.90;;;;;;5054371;28;20073;-83
2023/02/10 06:38:14;;;;;;;38.30;13.63;;;2.40;99.90;;;;;;5070504;28;20033;-84
2023/02/10 06:40:39;;;;;;;37.30;15.18;;;2.30;99.90;;;;;;5058697;28;20031;-81
2023/02/10 06:43:05;;;;;;;40.80;17.83;;;2.40;99.90;;;;;;5073443;28;20065;-83
2023/02/10 06:45:32;;;;;;;56.35;26.52;;;2.40;99.90;;;;;;5073218;28;20464;-84
2023/02/10 06:47:58;;;;;;;43.25;19.80;;;2.40;99.90;;;;;;5075951;28;20020;-83
2023/02/10 06:50:23;;;;;;;55.53;24.17;;;2.40;99.90;;;;;;5073379;28;20085;-83
2023/02/10 06:52:49;;;;;;;70.70;33.08;;;2.40;99.90;;;;;;5052913;28;20760;-84
2023/02/10 06:55:14;;;;;;;62.17;28.60;;;2.30;99.90;;;;;;5060749;28;20949;-77
2023/02/10 06:57:40;;;;;;;56.42;25.08;;;2.20;99.90;;;;;;5042610;28;20103;-77
2023/02/10 07:00:08;;;;;;;39.78;18.33;;;2.20;99.90;;;;;;5061159;28;20032;-78
2023/02/10 07:02:34;;;;;;;53.00;24.55;;;2.40;99.90;;;;;;5043660;28;20036;-78
2023/02/10 07:05:00;;;;;;;54.75;24.90;;;2.50;99.90;;;;;;5059911;28;20057;-78
2023/02/10 07:07:25;;;;;;;46.72;22.58;;;2.50;99.90;;;;;;5053295;28;20430;-77
2023/02/10 07:09:53;;;;;;;34.22;14.40;;;2.50;99.90;;;;;;5063999;28;20115;-77
2023/02/10 07:12:19;;;;;;;63.15;28.80;;;2.50;99.90;;;;;;5049181;28;20023;-78
2023/02/10 07:14:44;;;;;;;35.20;17.02;;;2.50;99.90;;;;;;5041937;28;20024;-78
2023/02/10 07:17:10;;;;;;;53.75;25.92;;;2.50;99.90;;;;;;5055312;28;20551;-77
2023/02/10 07:19:36;;;;;;;58.20;26.35;;;2.40;99.90;;;;;;5029658;28;20028;-77
2023/02/10 07:22:04;;;;;;;56.70;25.63;;;2.50;99.90;;;;;;5073812;28;20036;-77
2023/02/10 07:24:30;;;;;;;36.17;16.75;;;2.60;99.90;;;;;;5064239;28;20036;-77
2023/02/10 07:26:56;;;;;;;46.47;18.73;;;2.50;99.90;;;;;;5063247;28;20510;-77
2023/02/10 07:29:21;;;;;;;34.05;15.18;;;2.60;99.90;;;;;;5082981;28;20032;-77
2023/02/10 07:31:47;;;;;;;44.60;20.15;;;2.60;99.90;;;;;;5086395;28;20032;-77
2023/02/10 07:34:12;;;;;;;29.40;13.45;;;2.60;99.90;;;;;;5073718;28;20035;-77
2023/02/10 07:36:38;;;;;;;41.67;18.92;;;2.60;99.90;;;;;;5056812;28;20040;-77
2023/02/10 07:39:04;;;;;;;48.10;21.48;;;2.70;99.90;;;;;;5052741;28;20020;-77
2023/02/10 07:41:29;;;;;;;37.65;17.58;;;2.70;99.90;;;;;;5068905;28;20509;-77
2023/02/10 07:43:55;;;;;;;42.50;22.50;;;2.70;99.90;;;;;;5049609;28;20027;-77
2023/02/10 07:46:21;;;;;;;40.40;15.70;;;2.70;99.90;;;;;;5055671;28;20107;-77
2023/02/10 07:48:47;;;;;;;52.53;23.80;;;2.70;99.90;;;;;;5052640;28;20385;-77
2023/02/10 07:51:12;;;;;;;49.45;20.08;;;2.70;99.90;;;;;;5040407;28;20127;-77
2023/02/10 07:53:38;;;;;;;38.38;18.80;;;2.70;99.90;;;;;;5061570;28;20115;-77
2023/02/10 07:56:04;;;;;;;62.05;29.23;;;2.70;99.90;;;;;;5040056;28;20040;-77
2023/02/10 07:58:30;;;;;;;60.25;29.50;;;2.80;99.90;;;;;;5060020;28;20025;-77
2023/02/10 08:00:56;;;;;;;66.15;31.17;;;2.80;99.90;;;;;;5033571;28;20032;-78
2023/02/10 08:03:21;;;;;;;61.63;28.00;;;2.80;99.90;;;;;;5040963;28;20037;-78
2023/02/10 08:05:48;;;;;;;54.03;26.13;;;2.80;99.90;;;;;;5042089;28;20028;-78
2023/02/10 08:08:14;;;;;;;64.05;27.42;;;2.80;99.90;;;;;;5037012;28;20028;-77
2023/02/10 08:10:40;;;;;;;63.85;26.15;;;2.90;99.90;;;;;;5036404;28;20089;-78
2023/02/10 08:13:06;;;;;;;66.15;29.58;;;3.00;99.90;;;;;;5044544;28;20089;-78
2023/02/10 08:15:32;;;;;;;58.38;27.33;;;3.00;99.90;;;;;;5056053;28;20047;-78
2023/02/10 08:18:01;;;;;;;70.28;33.05;;;3.00;99.90;;;;;;5044124;28;20689;-78
2023/02/10 08:20:26;;;;;;;60.25;28.92;;;3.00;99.90;;;;;;5061003;28;20032;-78
2023/02/10 08:22:55;;;;;;;57.70;25.70;;;3.10;99.90;;;;;;5058884;28;20070;-78
2023/02/10 08:25:21;;;;;;;52.75;26.65;;;3.10;99.90;;;;;;5056851;28;20085;-78
2023/02/10 08:27:47;;;;;;;58.55;25.10;;;3.20;99.90;;;;;;5047270;28;20035;-78
2023/02/10 08:30:12;;;;;;;50.40;23.80;;;3.20;99.90;;;;;;5053938;28;20432;-78
2023/02/10 08:32:38;;;;;;;75.55;32.55;;;3.20;99.90;;;;;;5040204;28;20679;-78
2023/02/10 08:35:04;;;;;;;70.15;32.85;;;3.20;99.90;;;;;;5020654;28;20037;-78
2023/02/10 08:37:29;;;;;;;57.92;26.95;;;3.30;99.90;;;;;;5052152;28;20033;-78
2023/02/10 08:39:55;;;;;;;60.22;29.10;;;3.40;99.90;;;;;;5044790;28;20479;-77
2023/02/10 08:42:20;;;;;;;46.53;18.02;;;3.40;99.90;;;;;;5045096;28;20035;-78
2023/02/10 08:44:46;;;;;;;60.42;28.05;;;3.50;99.90;;;;;;5027191;28;20028;-78
2023/02/10 08:47:14;;;;;;;61.78;28.17;;;3.60;99.90;;;;;;5054228;28;20024;-78
2023/02/10 08:49:40;;;;;;;45.58;20.08;;;3.60;99.90;;;;;;5060247;28;20437;-77
2023/02/10 08:52:05;;;;;;;48.30;22.55;;;3.70;99.90;;;;;;5075754;28;20040;-78
2023/02/10 08:54:31;;;;;;;41.70;18.77;;;3.70;99.90;;;;;;5066852;28;20029;-77
2023/02/10 08:56:57;;;;;;;41.78;18.63;;;3.70;99.90;;;;;;5054572;28;20036;-77
2023/02/10 08:59:22;;;;;;;48.72;26.70;;;3.70;99.90;;;;;;5064982;28;20110;-77
2023/02/10 09:01:48;;;;;;;53.97;21.90;;;3.80;99.90;;;;;;5023454;28;20032;-78
2023/02/10 09:04:14;;;;;;;40.80;21.20;;;3.70;99.90;;;;;;5043680;28;20036;-78
2023/02/10 09:06:42;;;;;;;37.50;17.00;;;3.70;99.90;;;;;;5050094;28;20045;-78
2023/02/10 09:09:08;;;;;;;52.38;25.88;;;3.70;99.90;;;;;;5059047;28;20036;-77
2023/02/10 09:11:34;;;;;;;69.70;32.72;;;3.70;99.90;;;;;;5038515;28;20526;-78
2023/02/10 09:13:59;;;;;;;45.67;21.17;;;3.70;99.90;;;;;;5055919;28;20104;-77
2023/02/10 09:16:25;;;;;;;62.45;30.73;;;3.70;99.90;;;;;;5062672;28;20109;-77
2023/02/10 09:18:50;;;;;;;58.08;29.98;;;3.80;99.90;;;;;;5061396;28;20062;-78
2023/02/10 09:21:16;;;;;;;56.25;21.15;;;3.80;99.90;;;;;;5043444;28;20032;-78
2023/02/10 09:23:42;;;;;;;39.88;17.13;;;3.90;99.90;;;;;;5048925;28;20028;-78
2023/02/10 09:26:07;;;;;;;72.25;31.40;;;3.90;99.90;;;;;;5062472;28;20407;-78
2023/02/10 09:28:33;;;;;;;73.38;30.58;;;3.90;99.90;;;;;;5037160;28;20028;-78
2023/02/10 09:30:59;;;;;;;64.38;32.55;;;4.00;99.90;;;;;;5034938;28;20238;-78
2023/02/10 09:33:24;;;;;;;36.60;17.77;;;4.10;99.90;;;;;;5067301;28;20576;-78
2023/02/10 09:35:50;;;;;;;48.97;21.80;;;4.10;99.90;;;;;;5047838;28;20058;-78
2023/02/10 09:38:15;;;;;;;66.15;31.45;;;4.20;99.90;;;;;;5037949;28;20392;-78
2023/02/10 09:40:53;;;;;;;74.80;34.13;;;4.10;99.90;;;;;;5052684;28;20096;-78
2023/02/10 09:43:31;;;;;;;68.38;31.35;;;4.20;99.90;;;;;;5060275;28;20398;-78
2023/02/10 09:46:20;;;;;;;64.00;29.35;;;4.30;99.90;;;;;;5071843;28;20036;-78
2023/02/10 09:49:12;;;;;;;51.15;25.83;;;4.40;99.90;;;;;;5064664;28;20028;-78
2023/02/10 09:51:52;;;;;;;63.40;28.92;;;4.50;99.90;;;;;;5061241;28;20059;-78
2023/02/10 09:54:17;;;;;;;57.08;26.08;;;4.60;99.90;;;;;;5072970;28;20514;-78
2023/02/10 09:56:43;;;;;;;58.13;26.23;;;4.80;99.90;;;;;;5050003;28;20038;-78
2023/02/10 09:59:12;;;;;;;65.18;29.40;;;4.90;99.90;;;;;;5042718;28;20036;-78
2023/02/10 10:01:41;;;;;;;56.40;26.45;;;5.00;99.90;;;;;;5059046;28;20040;-78
2023/02/10 10:04:13;;;;;;;60.90;27.58;;;5.10;99.90;;;;;;5039107;28;20403;-77
2023/02/10 10:06:48;;;;;;;34.10;16.35;;;5.40;99.90;;;;;;5041421;28;20039;-78
2023/02/10 10:09:42;;;;;;;67.28;33.60;;;5.40;99.90;;;;;;5048094;28;20692;-77
2023/02/10 10:12:15;;;;;;;63.90;28.05;;;5.60;99.90;;;;;;5086986;27;20455;-78
2023/02/10 10:14:41;;;;;;;31.52;15.70;;;5.80;99.90;;;;;;5041442;28;20032;-78
2023/02/10 10:17:25;;;;;;;42.78;17.42;;;5.90;99.90;;;;;;5049861;28;20053;-77
2023/02/10 10:20:02;;;;;;;70.90;27.10;;;6.00;99.90;;;;;;5083183;28;20032;-77
2023/02/10 10:22:36;;;;;;;38.03;17.63;;;6.00;99.90;;;;;;5061889;28;20047;-77
2023/02/10 10:25:20;;;;;;;40.60;17.17;;;6.00;99.90;;;;;;5068596;28;20054;-78
2023/02/10 10:28:09;;;;;;;28.17;13.10;;;6.20;99.90;;;;;;5087332;28;20030;-78
2023/02/10 10:30:59;;;;;;;61.80;29.77;;;6.30;99.90;;;;;;5089975;28;20032;-77
2023/02/10 10:33:33;;;;;;;58.30;26.80;;;6.30;99.90;;;;;;5073935;28;20055;-78
2023/02/10 10:36:01;;;;;;;55.63;25.95;;;6.50;99.90;;;;;;5076395;28;20036;-79
2023/02/10 10:38:35;;;;;;;53.72;24.45;;;6.60;99.90;;;;;;5053448;28;20024;-78
2023/02/10 10:41:06;;;;;;;47.88;20.80;;;6.60;99.90;;;;;;5055064;28;20042;-78
2023/02/10 10:43:34;;;;;;;45.25;17.77;;;6.80;99.90;;;;;;5067046;28;20037;-78
2023/02/10 10:46:10;;;;;;;48.13;22.77;;;6.90;99.90;;;;;;5054208;28;20058;-78
2023/02/10 10:48:36;;;;;;;49.00;25.77;;;7.10;99.90;;;;;;5057698;28;20059;-77
2023/02/10 10:51:03;;;;;;;31.05;14.93;;;7.30;99.90;;;;;;5048864;28;20064;-78
2023/02/10 10:53:39;;;;;;;55.17;27.80;;;7.10;99.90;;;;;;5052060;28;20122;-78
2023/02/10 10:56:29;;;;;;;29.77;15.43;;;7.00;99.90;;;;;;5039212;28;20040;-77
2023/02/10 10:58:55;;;;;;;45.13;21.60;;;7.50;99.90;;;;;;5073223;27;20506;-78
2023/02/10 11:01:33;;;;;;;54.45;28.67;;;7.70;99.90;;;;;;5059458;28;20036;-78
2023/02/10 11:04:15;;;;;;;64.03;28.88;;;7.70;99.90;;;;;;5033725;28;20035;-78
2023/02/10 11:06:41;;;;;;;51.72;24.23;;;7.60;99.90;;;;;;5035453;28;20048;-78
2023/02/10 11:09:21;;;;;;;55.13;25.42;;;7.80;99.90;;;;;;4983245;28;20032;-78
2023/02/10 11:11:46;;;;;;;50.05;21.55;;;7.90;99.90;;;;;;5027049;28;20074;-78
2023/02/10 11:14:16;;;;;;;47.38;26.88;;;8.10;99.90;;;;;;5008462;27;20391;-78
2023/02/10 11:16:50;;;;;;;48.75;22.33;;;8.10;99.90;;;;;;5018063;28;20052;-79
2023/02/10 11:19:21;;;;;;;34.42;17.10;;;8.10;99.90;;;;;;5012658;28;20037;-78
2023/02/10 11:21:46;;;;;;;46.38;24.50;;;8.20;99.90;;;;;;5045590;28;20050;-80
2023/02/10 11:24:25;;;;;;;57.20;26.40;;;8.40;99.90;;;;;;5050894;28;20491;-78
2023/02/10 11:27:02;;;;;;;46.33;22.00;;;8.50;99.90;;;;;;5061620;28;20087;-78
2023/02/10 11:29:30;;;;;;;49.33;23.33;;;8.40;99.90;;;;;;5046702;28;20708;-80
2023/02/10 11:31:56;;;;;;;48.42;23.48;;;8.60;99.90;;;;;;5024759;28;20028;-77
2023/02/10 11:34:26;;;;;;;49.45;22.25;;;8.50;99.90;;;;;;5027275;28;20089;-80
2023/02/10 11:36:52;;;;;;;47.30;19.08;;;8.60;99.90;;;;;;5051515;28;20032;-80
2023/02/10 11:39:29;;;;;;;34.42;17.33;;;8.70;99.90;;;;;;5026925;28;20035;-80
2023/02/10 11:41:55;;;;;;;42.90;23.92;;;8.80;99.90;;;;;;5056938;28;20161;-80
2023/02/10 11:44:31;;;;;;;47.35;22.27;;;8.90;99.90;;;;;;5064539;28;20496;-79
2023/02/10 11:47:11;;;;;;;;;;;8.80;99.90;;;;;;5058915;28;20093;-78
2023/02/10 11:49:36;;;;;;;46.97;23.45;;;8.90;99.90;;;;;;5075569;28;19915;-79
2023/02/10 11:52:02;;;;;;;36.63;16.08;;;9.00;99.90;;;;;;5039364;28;20032;-78
2023/02/10 11:54:28;;;;;;;46.80;21.95;;;9.10;99.90;;;;;;5040360;28;20119;-78
2023/02/10 12:00:07;;;;;;;46.22;21.52;;;9.00;99.90;;;;;;5067528;28;20035;-79
2023/02/10 12:03:13;;;;;;;47.88;22.60;;;9.10;99.90;;;;;;5056914;28;20119;-79
2023/02/10 12:05:50;;;;;;;33.42;16.23;;;9.10;99.90;;;;;;5065416;28;20039;-79
2023/02/10 12:08:34;;;;;;;42.00;19.52;;;9.30;99.90;;;;;;5075072;28;20039;-79
2023/02/10 12:11:02;;;;;;;46.03;21.83;;;9.00;99.90;;;;;;5083425;28;20088;-79
2023/02/10 12:13:36;;;;;;;47.95;22.65;;;9.40;99.90;;;;;;5068051;28;20039;-79
2023/02/10 12:16:18;;;;;;;29.58;13.00;;;9.40;99.90;;;;;;5050447;28;20051;-80
2023/02/10 12:19:02;;;;;;;34.10;14.65;;;9.40;99.90;;;;;;5060255;28;20119;-80
2023/02/10 12:21:48;;;;;;;45.63;20.50;;;9.30;99.90;;;;;;5091625;28;20025;-79
2023/02/10 12:24:26;;;;;;;35.88;15.18;;;9.30;99.90;;;;;;5078462;27;20473;-80
2023/02/10 12:27:13;;;;;;;33.63;13.90;;;9.40;99.90;;;;;;5079937;28;20072;-80
2023/02/10 12:30:02;;;;;;;41.47;18.38;;;9.40;99.90;;;;;;5061209;28;20036;-80
2023/02/10 12:32:41;;;;;;;49.88;22.05;;;9.40;99.90;;;;;;5050204;27;20028;-80
2023/02/10 12:35:26;;;;;;;45.85;20.85;;;9.50;99.90;;;;;;5080281;28;20052;-79
2023/02/10 12:38:22;;;;;;;43.78;20.15;;;9.40;99.90;;;;;;5086213;28;20036;-79
2023/02/10 12:40:59;;;;;;;35.83;16.20;;;9.50;99.90;;;;;;5082161;28;20383;-80
2023/02/10 12:44:01;;;;;;;40.50;16.75;;;9.50;99.90;;;;;;5077200;28;20254;-80
2023/02/10 12:46:38;;;;;;;40.47;20.27;;;9.50;99.90;;;;;;5084248;28;20040;-79
2023/02/10 12:49:37;;;;;;;46.80;21.25;;;9.60;99.90;;;;;;5055541;28;20078;-79
2023/02/10 12:52:17;;;;;;;28.80;12.23;;;9.40;99.90;;;;;;5078063;27;20017;-79